Jarrell, Texas
Current Conditions -  °F | °C
As of 8:51 PM on Saturday 20 Dec 2014 (Local Time) from KGTU Reporting Station
Haze Haze  
Wind Chill: 10°   Ceiling: 2500
Heat Index: 10°   Visibility: 6mi
Dew Point:   Wind: 3mph
Humidity: 87%   Direction: 60°ENE
Pressure: 30.18"   Gusts: NA
Location:  30.82°N, 97.6°W
Report Text: KGTU 210251Z 06003KT 6SM BR OVC025 10/08 A3018
Loading
Personal Weather Stations






























Interactive Weather Map New forecast layout! Learn more

10-Day Weather Forecast

Advertisements
Track Severe Weather on mobile